Time;durP1;ratioP1;P1;durP2;ratioP2;P2;SDS_P1;SDS_P2;PMS_P1;PMS_P2;Temp;Humidity;BMP_temperature;BMP_pressure;BME280_temperature;BME280_humidity;BME280_pressure;Samples;Min_cycle;Max_cycle;Signal;HPM_P1;HPM_P2
2022/08/28 00:00:39;;;;;;;9.55;4.00;;;14.60;99.90;;;;;;5036844;28;20464;-72
2022/08/28 00:03:05;;;;;;;8.65;3.28;;;14.60;99.90;;;;;;5020806;28;20048;-72
2022/08/28 00:05:32;;;;;;;9.63;3.80;;;14.50;99.90;;;;;;5050001;28;20384;-72
2022/08/28 00:07:59;;;;;;;9.63;3.83;;;14.50;99.90;;;;;;5055274;28;20143;-72
2022/08/28 00:10:25;;;;;;;8.25;3.80;;;14.40;99.90;;;;;;5040498;28;20084;-73
2022/08/28 00:12:57;;;;;;;9.52;3.80;;;14.40;99.90;;;;;;5036021;28;20049;-72
2022/08/28 00:15:31;;;;;;;9.85;3.67;;;14.40;99.90;;;;;;5047428;28;20045;-72
2022/08/28 00:17:58;;;;;;;9.23;3.63;;;14.30;99.90;;;;;;5053192;28;20051;-72
2022/08/28 00:20:25;;;;;;;8.90;3.53;;;14.20;99.90;;;;;;5046095;28;20044;-72
2022/08/28 00:22:53;;;;;;;9.30;3.50;;;14.30;99.90;;;;;;5054146;28;20055;-72
2022/08/28 00:25:23;;;;;;;10.30;3.45;;;14.30;99.90;;;;;;5038344;28;20419;-72
2022/08/28 00:27:53;;;;;;;8.90;3.38;;;14.20;99.90;;;;;;5056166;28;20067;-72
2022/08/28 00:30:42;;;;;;;8.20;3.38;;;14.20;99.90;;;;;;5045853;28;20053;-72
2022/08/28 00:33:32;;;;;;;7.63;3.35;;;14.20;99.90;;;;;;5046475;28;20075;-72
2022/08/28 00:35:59;;;;;;;9.93;3.83;;;14.20;99.90;;;;;;5028097;28;20043;-72
2022/08/28 00:38:26;;;;;;;8.73;3.30;;;14.10;99.90;;;;;;5055253;28;20102;-73
2022/08/28 00:40:55;;;;;;;8.48;3.63;;;14.10;99.90;;;;;;5049659;28;20131;-72
2022/08/28 00:43:42;;;;;;;9.50;3.80;;;14.00;99.90;;;;;;5049291;28;20083;-72
2022/08/28 00:46:16;;;;;;;9.23;3.80;;;14.00;99.90;;;;;;5056594;28;20041;-72
2022/08/28 00:48:42;;;;;;;8.63;3.10;;;13.90;99.90;;;;;;5055157;28;20131;-71
2022/08/28 00:53:56;;;;;;;7.82;3.40;;;13.80;99.90;;;;;;5067034;28;20063;-72
2022/08/28 00:56:22;;;;;;;12.15;4.07;;;13.70;99.90;;;;;;5036272;28;20045;-72
2022/08/28 00:58:50;;;;;;;8.00;3.15;;;13.60;99.90;;;;;;5041764;28;20481;-72
2022/08/28 01:01:16;;;;;;;9.38;3.30;;;13.50;99.90;;;;;;5047525;28;20082;-72
2022/08/28 01:03:42;;;;;;;7.82;3.30;;;13.50;99.90;;;;;;5045819;28;20041;-72
2022/08/28 01:06:09;;;;;;;7.57;3.30;;;13.40;99.90;;;;;;5049247;28;20041;-72
2022/08/28 01:08:37;;;;;;;7.75;3.15;;;13.50;99.90;;;;;;5029349;28;20032;-72
2022/08/28 01:11:06;;;;;;;7.57;3.28;;;13.50;99.90;;;;;;5050267;28;20070;-72
2022/08/28 01:13:32;;;;;;;8.35;2.95;;;13.50;99.90;;;;;;5028037;28;20444;-72
2022/08/28 01:15:59;;;;;;;7.82;3.17;;;13.50;99.90;;;;;;5041043;28;20084;-72
2022/08/28 01:18:26;;;;;;;8.95;3.20;;;13.50;99.90;;;;;;5032483;28;20075;-72
2022/08/28 01:21:18;;;;;;;8.05;3.00;;;13.50;99.90;;;;;;5039359;28;20098;-73
2022/08/28 01:23:52;;;;;;;9.95;4.00;;;13.40;99.90;;;;;;5036450;28;20155;-73
2022/08/28 01:26:18;;;;;;;9.30;3.45;;;13.50;99.90;;;;;;5039437;28;20472;-73
2022/08/28 01:28:44;;;;;;;11.63;3.65;;;13.40;99.90;;;;;;5036334;28;20072;-73
2022/08/28 01:31:12;;;;;;;7.80;3.10;;;13.40;99.90;;;;;;5041763;28;20496;-73
2022/08/28 01:33:40;;;;;;;8.38;3.45;;;13.40;99.90;;;;;;5054905;28;20038;-73
2022/08/28 01:36:06;;;;;;;7.72;3.28;;;13.40;99.90;;;;;;5053008;28;20056;-74
2022/08/28 01:38:32;;;;;;;6.78;2.67;;;13.50;99.90;;;;;;5038545;28;20083;-73
2022/08/28 01:40:58;;;;;;;7.35;3.25;;;13.50;99.90;;;;;;5055716;28;20404;-73
2022/08/28 01:43:25;;;;;;;8.25;3.00;;;13.50;99.90;;;;;;5055270;28;20134;-73
2022/08/28 01:45:55;;;;;;;10.70;3.63;;;13.50;99.90;;;;;;5063697;28;20047;-73
2022/08/28 01:48:23;;;;;;;9.15;3.40;;;13.50;99.90;;;;;;5061391;28;20076;-73
2022/08/28 01:50:49;;;;;;;8.18;3.30;;;13.50;99.90;;;;;;5042419;28;20047;-72
2022/08/28 01:53:17;;;;;;;6.85;2.80;;;13.40;99.90;;;;;;5054705;28;20375;-72
2022/08/28 01:55:43;;;;;;;7.63;2.80;;;13.40;99.90;;;;;;5048858;28;20545;-73
2022/08/28 01:58:09;;;;;;;8.77;3.30;;;13.40;99.90;;;;;;5046817;28;20036;-73
2022/08/28 02:00:36;;;;;;;8.52;3.42;;;13.20;99.90;;;;;;5058119;28;20040;-73
2022/08/28 02:03:02;;;;;;;7.75;3.30;;;13.20;99.90;;;;;;5056404;28;20127;-73
2022/08/28 02:05:31;;;;;;;8.68;3.38;;;13.20;99.90;;;;;;5048674;28;20049;-73
2022/08/28 02:07:59;;;;;;;8.35;3.20;;;13.20;99.90;;;;;;5054953;28;20037;-74
2022/08/28 02:10:27;;;;;;;9.68;3.50;;;13.10;99.90;;;;;;5054835;28;20044;-73
2022/08/28 02:12:54;;;;;;;8.82;3.53;;;13.10;99.90;;;;;;5086569;28;20127;-73
2022/08/28 02:15:22;;;;;;;8.30;3.30;;;13.00;99.90;;;;;;5042155;28;20044;-72
2022/08/28 02:17:48;;;;;;;8.52;3.75;;;12.90;99.90;;;;;;5023551;28;20047;-73
2022/08/28 02:20:14;;;;;;;10.75;3.47;;;12.90;99.90;;;;;;5072357;28;20115;-74
2022/08/28 02:22:40;;;;;;;7.55;2.97;;;12.90;99.90;;;;;;5054440;28;20047;-73
2022/08/28 02:25:07;;;;;;;7.60;3.17;;;12.90;99.90;;;;;;5054970;28;20368;-73
2022/08/28 02:27:35;;;;;;;8.88;2.97;;;12.90;99.90;;;;;;5054333;28;20048;-74
2022/08/28 02:30:02;;;;;;;8.40;3.20;;;12.90;99.90;;;;;;5054252;28;20509;-74
2022/08/28 02:32:28;;;;;;;8.88;3.53;;;12.80;99.90;;;;;;5038649;28;20049;-74
2022/08/28 02:34:54;;;;;;;7.35;3.05;;;12.80;99.90;;;;;;5054333;28;20044;-73
2022/08/28 02:37:21;;;;;;;6.97;2.95;;;12.80;99.90;;;;;;5075612;28;20070;-73
2022/08/28 02:39:47;;;;;;;7.95;3.28;;;12.80;99.90;;;;;;5041903;28;20043;-77
2022/08/28 02:42:12;;;;;;;7.43;3.03;;;12.70;99.90;;;;;;5072235;28;20036;-73
2022/08/28 02:44:38;;;;;;;7.13;3.05;;;12.70;99.90;;;;;;5058461;28;20098;-74
2022/08/28 02:47:04;;;;;;;7.28;3.20;;;12.70;99.90;;;;;;5038575;28;20048;-74
2022/08/28 02:49:30;;;;;;;6.93;2.65;;;12.70;99.90;;;;;;5038811;28;20052;-74
2022/08/28 02:51:57;;;;;;;7.88;3.28;;;12.70;99.90;;;;;;5021204;28;20055;-75
2022/08/28 02:54:25;;;;;;;8.60;3.05;;;12.80;99.90;;;;;;5025306;28;20041;-73
2022/08/28 02:56:51;;;;;;;8.95;3.20;;;12.80;99.90;;;;;;5051247;28;20105;-74
2022/08/28 02:59:18;;;;;;;7.05;2.97;;;12.80;99.90;;;;;;5070903;28;20048;-73
2022/08/28 03:01:43;;;;;;;7.55;3.00;;;12.70;99.90;;;;;;5038580;28;20049;-75
2022/08/28 03:04:09;;;;;;;6.75;2.80;;;12.70;99.90;;;;;;5035418;28;20121;-74
2022/08/28 03:06:35;;;;;;;7.70;3.10;;;12.70;99.90;;;;;;5036593;28;20032;-74
2022/08/28 03:09:01;;;;;;;8.43;3.20;;;12.70;99.90;;;;;;5075862;28;20187;-74
2022/08/28 03:11:27;;;;;;;7.47;2.88;;;12.80;99.90;;;;;;5054408;28;20123;-74
2022/08/28 03:13:53;;;;;;;7.88;2.80;;;12.70;99.90;;;;;;5058186;28;20123;-74
2022/08/28 03:16:19;;;;;;;8.02;2.90;;;12.70;99.90;;;;;;5038411;28;20037;-74
2022/08/28 03:18:44;;;;;;;6.20;2.78;;;12.70;99.90;;;;;;5046073;28;20484;-74
2022/08/28 03:21:10;;;;;;;8.23;3.00;;;12.70;99.90;;;;;;5038059;28;20036;-74
2022/08/28 03:23:37;;;;;;;8.48;3.00;;;12.70;99.90;;;;;;5048155;28;20041;-74
2022/08/28 03:26:12;;;;;;;7.28;2.95;;;12.70;99.90;;;;;;5050973;28;20057;-74
2022/08/28 03:28:41;;;;;;;6.82;2.88;;;12.70;99.90;;;;;;5046009;28;20040;-74
2022/08/28 03:31:12;;;;;;;7.47;3.00;;;12.60;99.90;;;;;;5025243;28;20053;-74
2022/08/28 03:33:40;;;;;;;8.35;3.10;;;12.60;99.90;;;;;;5056847;28;20468;-73
2022/08/28 03:36:07;;;;;;;8.38;3.10;;;12.60;99.90;;;;;;5054262;28;20399;-74
2022/08/28 03:38:33;;;;;;;8.20;2.92;;;12.60;99.90;;;;;;5066407;28;20356;-74
2022/08/28 03:41:00;;;;;;;9.88;3.38;;;12.60;99.90;;;;;;5037906;28;20049;-74
2022/08/28 03:43:27;;;;;;;8.32;3.20;;;12.60;99.90;;;;;;5052173;28;20519;-75
2022/08/28 03:46:01;;;;;;;7.68;3.20;;;12.50;99.90;;;;;;5057661;28;20418;-75
2022/08/28 03:48:30;;;;;;;8.73;3.00;;;12.60;99.90;;;;;;5056837;28;20468;-74
2022/08/28 03:50:56;;;;;;;10.52;3.30;;;12.60;99.90;;;;;;5039847;28;20045;-74
2022/08/28 03:53:24;;;;;;;9.63;2.90;;;12.60;99.90;;;;;;5032614;28;20044;-75
2022/08/28 03:55:51;;;;;;;8.57;3.00;;;12.50;99.90;;;;;;5038636;28;20052;-75
2022/08/28 03:58:16;;;;;;;10.40;3.40;;;12.50;99.90;;;;;;5055135;28;20053;-75
2022/08/28 04:00:44;;;;;;;7.80;3.40;;;12.40;99.90;;;;;;5037195;28;20049;-75
2022/08/28 04:03:11;;;;;;;9.13;3.10;;;12.40;99.90;;;;;;5045821;28;20052;-75
2022/08/28 04:05:41;;;;;;;7.38;2.83;;;12.40;99.90;;;;;;5056607;28;20140;-75
2022/08/28 04:08:07;;;;;;;9.07;3.03;;;12.40;99.90;;;;;;5056781;28;20037;-74
2022/08/28 04:10:33;;;;;;;9.95;3.35;;;12.40;99.90;;;;;;5057231;28;20044;-74
2022/08/28 04:12:59;;;;;;;8.90;2.92;;;12.40;99.90;;;;;;5036185;28;20102;-75
2022/08/28 04:15:26;;;;;;;9.02;3.60;;;12.30;99.90;;;;;;5048606;28;20040;-75
2022/08/28 04:17:52;;;;;;;7.72;3.03;;;12.30;99.90;;;;;;5070185;28;20529;-76
2022/08/28 04:20:19;;;;;;;8.75;2.80;;;12.30;99.90;;;;;;5064131;28;20076;-75
2022/08/28 04:22:46;;;;;;;6.68;2.92;;;12.30;99.90;;;;;;5073872;28;20147;-75
2022/08/28 04:25:13;;;;;;;9.25;3.90;;;12.30;99.90;;;;;;5056853;28;20048;-76
2022/08/28 04:27:39;;;;;;;7.13;2.85;;;12.30;99.90;;;;;;5055810;28;20051;-76
2022/08/28 04:30:05;;;;;;;7.22;2.92;;;12.20;99.90;;;;;;5043076;28;20044;-75
2022/08/28 04:32:34;;;;;;;10.05;3.10;;;12.20;99.90;;;;;;5054222;28;20068;-75
2022/08/28 04:35:00;;;;;;;8.57;3.15;;;12.20;99.90;;;;;;5052919;28;20048;-75
2022/08/28 04:37:26;;;;;;;6.25;2.80;;;12.20;99.90;;;;;;5044546;28;20362;-76
2022/08/28 04:39:52;;;;;;;7.07;3.00;;;12.20;99.90;;;;;;5059718;28;20049;-76
2022/08/28 04:42:18;;;;;;;7.35;2.90;;;12.20;99.90;;;;;;5056623;28;20040;-76
2022/08/28 04:44:44;;;;;;;7.95;2.97;;;12.20;99.90;;;;;;5027324;28;20045;-76
2022/08/28 04:47:09;;;;;;;10.20;3.70;;;12.20;99.90;;;;;;5068183;28;20055;-76
2022/08/28 04:49:35;;;;;;;7.95;3.33;;;12.20;99.90;;;;;;5036777;28;20057;-75
2022/08/28 04:52:01;;;;;;;8.80;3.42;;;12.20;99.90;;;;;;5051597;28;20048;-75
2022/08/28 04:54:27;;;;;;;8.15;2.92;;;12.10;99.90;;;;;;5046988;28;20106;-75
2022/08/28 04:56:53;;;;;;;8.00;2.72;;;12.10;99.90;;;;;;5054304;28;20420;-76
2022/08/28 04:59:19;;;;;;;8.30;3.30;;;12.10;99.90;;;;;;5056436;28;20033;-76
2022/08/28 05:01:44;;;;;;;6.80;2.67;;;12.10;99.90;;;;;;5072006;28;20356;-76
2022/08/28 05:04:11;;;;;;;8.95;3.20;;;12.10;99.90;;;;;;5037628;28;20040;-76
2022/08/28 05:06:44;;;;;;;8.13;2.80;;;12.20;99.90;;;;;;5055724;28;20123;-76
2022/08/28 05:09:11;;;;;;;7.43;2.97;;;12.20;99.90;;;;;;5054958;28;20095;-76
2022/08/28 05:11:37;;;;;;;10.98;3.47;;;12.20;99.90;;;;;;5045918;28;20371;-76
2022/08/28 05:14:08;;;;;;;9.77;3.20;;;12.20;99.90;;;;;;5055096;28;20045;-76
2022/08/28 05:16:46;;;;;;;8.10;3.10;;;12.20;99.90;;;;;;5055460;28;20048;-76
2022/08/28 05:19:12;;;;;;;8.63;3.17;;;12.20;99.90;;;;;;5052838;28;20492;-76
2022/08/28 05:21:38;;;;;;;8.40;3.30;;;12.20;99.90;;;;;;5044260;28;20383;-76
2022/08/28 05:24:05;;;;;;;7.95;3.33;;;12.20;99.90;;;;;;5040610;28;20045;-76
2022/08/28 05:26:32;;;;;;;8.88;3.47;;;12.20;99.90;;;;;;5073106;28;20071;-76
2022/08/28 05:28:58;;;;;;;9.50;3.35;;;12.20;99.90;;;;;;5055710;28;20487;-76
2022/08/28 05:31:26;;;;;;;7.95;3.60;;;12.30;99.90;;;;;;5036095;28;20059;-76
2022/08/28 05:33:52;;;;;;;11.07;3.90;;;12.40;99.90;;;;;;5052019;28;20538;-76
2022/08/28 05:36:21;;;;;;;8.93;3.80;;;12.50;99.90;;;;;;5048544;28;20040;-75
2022/08/28 05:38:48;;;;;;;10.07;3.60;;;12.60;99.90;;;;;;5054569;28;20032;-76
2022/08/28 05:41:23;;;;;;;9.10;3.70;;;12.60;99.90;;;;;;5055630;28;20049;-76
2022/08/28 05:43:51;;;;;;;10.35;3.90;;;12.60;99.90;;;;;;5072195;28;20087;-75
2022/08/28 05:46:17;;;;;;;9.65;3.67;;;12.60;99.90;;;;;;5022747;28;20127;-75
2022/08/28 05:48:44;;;;;;;9.90;3.80;;;12.60;99.90;;;;;;5072741;28;20072;-75
2022/08/28 05:51:19;;;;;;;9.07;3.33;;;12.70;99.90;;;;;;5055186;28;20044;-75
2022/08/28 05:53:46;;;;;;;12.10;4.10;;;12.70;99.90;;;;;;5084708;28;20075;-75
2022/08/28 05:56:18;;;;;;;9.95;3.72;;;12.70;99.90;;;;;;5055472;28;20118;-75
2022/08/28 05:58:44;;;;;;;10.00;3.92;;;12.70;99.90;;;;;;5055036;28;20076;-75
2022/08/28 06:01:23;;;;;;;12.23;3.90;;;12.80;99.90;;;;;;5055451;28;20494;-74
2022/08/28 06:04:00;;;;;;;8.35;3.60;;;12.90;99.90;;;;;;5054626;28;20052;-73
2022/08/28 06:06:28;;;;;;;10.10;3.80;;;13.20;99.90;;;;;;5057996;28;20539;-75
2022/08/28 06:09:00;;;;;;;10.68;3.55;;;13.70;99.90;;;;;;5044565;28;20059;-74
2022/08/28 06:11:27;;;;;;;9.52;3.40;;;14.40;99.90;;;;;;5058925;28;20083;-71
2022/08/28 06:13:53;;;;;;;11.02;3.53;;;15.10;99.90;;;;;;5039666;28;20041;-73
2022/08/28 06:16:19;;;;;;;9.00;3.22;;;15.70;99.90;;;;;;5077228;28;20046;-74
2022/08/28 06:18:46;;;;;;;8.77;3.50;;;16.80;99.90;;;;;;5059389;28;20048;-72
2022/08/28 06:21:12;;;;;;;8.65;3.10;;;17.50;99.90;;;;;;5058356;28;20040;-73
2022/08/28 06:23:43;;;;;;;8.05;2.80;;;18.40;99.90;;;;;;5058683;28;20102;-73
2022/08/28 06:26:10;;;;;;;;;;;19.00;99.90;;;;;;5059239;28;20040;-73
2022/08/28 06:28:36;;;;;;;8.80;2.90;;;19.70;99.90;;;;;;5039204;28;20008;-73
2022/08/28 06:31:03;;;;;;;7.38;2.90;;;19.90;99.90;;;;;;5038023;28;20131;-73
2022/08/28 06:33:29;;;;;;;9.73;2.80;;;20.10;99.90;;;;;;5062617;28;20051;-73
2022/08/28 06:35:55;;;;;;;9.05;2.85;;;20.10;99.90;;;;;;5074766;28;20044;-72
2022/08/28 06:38:24;;;;;;;7.30;2.58;;;20.20;99.40;;;;;;5035810;28;20041;-72
2022/08/28 06:40:53;;;;;;;7.82;2.85;;;20.70;99.90;;;;;;5031041;28;20119;-73
2022/08/28 06:43:21;;;;;;;7.78;2.88;;;21.20;98.30;;;;;;5043232;28;20375;-72
2022/08/28 06:45:52;;;;;;;8.50;2.97;;;21.40;97.70;;;;;;5039020;28;20476;-72
2022/08/28 06:48:19;;;;;;;6.13;2.60;;;21.40;97.00;;;;;;5052484;28;20048;-72
2022/08/28 06:50:48;;;;;;;8.43;2.60;;;21.90;97.60;;;;;;5038340;28;20340;-72
2022/08/28 06:53:16;;;;;;;8.65;2.47;;;22.50;95.30;;;;;;5050819;28;20067;-72
2022/08/28 06:55:41;;;;;;;8.27;2.45;;;23.20;93.50;;;;;;5058213;28;20029;-73
2022/08/28 06:58:09;;;;;;;6.90;2.40;;;23.20;92.20;;;;;;5055139;28;20471;-73
2022/08/28 07:00:36;;;;;;;9.65;2.28;;;23.20;90.40;;;;;;5055667;28;20119;-73
2022/08/28 07:03:04;;;;;;;8.93;2.35;;;23.10;90.70;;;;;;5057507;28;20532;-72
2022/08/28 07:05:31;;;;;;;7.65;2.20;;;23.00;90.70;;;;;;5041671;28;20056;-72
2022/08/28 07:07:57;;;;;;;8.13;2.42;;;23.40;90.50;;;;;;5029426;28;20041;-71
2022/08/28 07:10:23;;;;;;;7.45;2.35;;;23.70;89.40;;;;;;5058372;28;20127;-72
2022/08/28 07:12:49;;;;;;;8.60;2.40;;;24.00;86.20;;;;;;5040391;28;20041;-71
2022/08/28 07:15:16;;;;;;;7.13;2.25;;;24.30;85.10;;;;;;5058021;28;20476;-72
2022/08/28 07:17:42;;;;;;;8.02;2.30;;;24.70;80.70;;;;;;5057421;28;20072;-75
2022/08/28 07:20:10;;;;;;;7.55;2.35;;;24.50;79.80;;;;;;5058259;28;20434;-73
2022/08/28 07:22:39;;;;;;;6.90;2.20;;;24.30;78.50;;;;;;5056601;28;20476;-73
2022/08/28 07:25:07;;;;;;;6.65;2.38;;;23.90;78.80;;;;;;5075928;28;20048;-73
2022/08/28 07:27:33;;;;;;;8.20;2.08;;;24.00;78.00;;;;;;5042443;28;20130;-73
2022/08/28 07:30:00;;;;;;;8.02;2.30;;;23.90;75.40;;;;;;5022469;28;20464;-73
2022/08/28 07:32:27;;;;;;;6.55;2.28;;;24.10;76.40;;;;;;5030519;28;20380;-72
2022/08/28 07:34:52;;;;;;;8.25;2.20;;;23.90;76.70;;;;;;5071024;28;20052;-73
2022/08/28 07:37:19;;;;;;;9.85;2.20;;;23.90;76.00;;;;;;5049189;28;20534;-72
2022/08/28 07:39:44;;;;;;;6.80;2.22;;;24.10;76.30;;;;;;5021639;28;20384;-73
2022/08/28 07:44:47;;;;;;;6.80;2.10;;;24.10;75.00;;;;;;5037511;28;20056;-73
2022/08/28 07:44:58;;;;;;;9.05;2.33;;;24.00;75.60;;;;;;5037711;28;20057;-72
2022/08/28 07:47:30;;;;;;;6.95;1.85;;;23.60;74.30;;;;;;5087825;28;20048;-72
2022/08/28 07:49:59;;;;;;;7.95;2.20;;;23.30;75.10;;;;;;5057878;28;20352;-73
2022/08/28 07:52:26;;;;;;;8.18;2.25;;;23.00;76.20;;;;;;5056504;28;20116;-74
2022/08/28 07:54:53;;;;;;;6.90;2.00;;;23.00;77.40;;;;;;5057529;28;20123;-73
2022/08/28 07:57:19;;;;;;;8.57;2.03;;;23.00;78.00;;;;;;5051051;28;20045;-73
2022/08/28 07:59:46;;;;;;;7.90;2.08;;;22.80;75.40;;;;;;5037466;28;20492;-73
2022/08/28 08:02:13;;;;;;;7.82;2.17;;;22.50;76.50;;;;;;5038211;28;20044;-72
2022/08/28 08:04:39;;;;;;;8.05;2.15;;;22.60;77.80;;;;;;5086637;28;20081;-73
2022/08/28 08:07:06;;;;;;;6.45;2.03;;;22.70;77.70;;;;;;5037078;28;20123;-73
2022/08/28 08:09:37;;;;;;;7.35;2.20;;;22.90;76.80;;;;;;5037397;28;20471;-73
2022/08/28 08:12:04;;;;;;;8.03;2.20;;;23.00;77.10;;;;;;5050429;28;20053;-72
2022/08/28 08:14:30;;;;;;;8.18;2.10;;;23.10;76.20;;;;;;5050567;28;20144;-73
2022/08/28 08:17:00;;;;;;;7.32;2.20;;;22.70;73.70;;;;;;5028786;28;20076;-71
2022/08/28 08:19:26;;;;;;;7.10;1.90;;;22.10;75.30;;;;;;5055292;28;20048;-73
2022/08/28 08:21:52;;;;;;;7.68;2.15;;;21.90;77.50;;;;;;5056179;28;20040;-75
2022/08/28 08:24:19;;;;;;;9.25;2.20;;;21.50;78.30;;;;;;5054137;28;20046;-73
2022/08/28 08:26:49;;;;;;;7.97;2.08;;;21.30;79.30;;;;;;5020127;28;20121;-74
2022/08/28 08:29:16;;;;;;;7.15;1.92;;;21.20;81.30;;;;;;5049868;28;20529;-73
2022/08/28 08:31:42;;;;;;;6.28;2.00;;;21.20;80.80;;;;;;5060983;28;20037;-71
2022/08/28 08:34:08;;;;;;;10.88;2.00;;;21.40;80.80;;;;;;5056284;28;20463;-71
2022/08/28 08:36:36;;;;;;;11.50;2.20;;;21.30;79.60;;;;;;5041878;28;20056;-72
2022/08/28 08:39:05;;;;;;;9.48;2.10;;;21.30;78.90;;;;;;5056118;28;20079;-71
2022/08/28 08:41:46;;;;;;;8.45;2.20;;;21.40;79.80;;;;;;5073922;28;20097;-74
2022/08/28 08:44:38;;;;;;;7.63;2.15;;;21.50;79.90;;;;;;5044936;28;20048;-73
2022/08/28 08:47:04;;;;;;;;;;;21.40;79.10;;;;;;5056418;28;20041;-72
2022/08/28 08:49:37;;;;;;;8.77;1.90;;;21.00;80.40;;;;;;5056334;28;20286;-72
2022/08/28 08:52:40;;;;;;;8.35;2.20;;;21.10;81.20;;;;;;5052221;28;20045;-73
2022/08/28 08:55:25;;;;;;;7.80;2.17;;;21.30;81.00;;;;;;5050110;28;20102;-74
2022/08/28 08:58:03;;;;;;;7.72;2.17;;;21.60;79.50;;;;;;5073701;28;20094;-72
2022/08/28 09:00:35;;;;;;;9.73;2.20;;;22.10;78.30;;;;;;5056244;28;20123;-72
2022/08/28 09:03:21;;;;;;;6.55;2.00;;;22.20;74.10;;;;;;5046766;28;20076;-72
2022/08/28 09:05:50;;;;;;;8.13;2.03;;;22.30;73.60;;;;;;5035515;28;20041;-72
2022/08/28 09:08:28;;;;;;;6.93;2.00;;;22.20;73.70;;;;;;5035478;28;20041;-73
2022/08/28 09:11:12;;;;;;;8.30;2.00;;;22.30;73.10;;;;;;5039741;28;20127;-72
2022/08/28 09:14:06;;;;;;;9.55;2.20;;;22.00;72.90;;;;;;5042682;28;20051;-73
2022/08/28 09:16:40;;;;;;;5.78;1.83;;;21.60;72.60;;;;;;5044388;28;20040;-74
2022/08/28 09:19:11;;;;;;;8.05;1.95;;;21.60;73.70;;;;;;5035329;28;20056;-75
2022/08/28 09:21:41;;;;;;;7.32;2.00;;;22.00;72.50;;;;;;5043933;28;20102;-74
2022/08/28 09:24:14;;;;;;;7.00;2.03;;;22.30;71.10;;;;;;5054238;28;20384;-75
2022/08/28 09:26:40;;;;;;;8.00;2.28;;;22.30;69.70;;;;;;5043570;28;20495;-73
2022/08/28 09:29:15;;;;;;;6.70;1.77;;;22.10;70.40;;;;;;5073447;28;20040;-74
2022/08/28 09:31:42;;;;;;;7.63;2.20;;;22.10;71.30;;;;;;5055761;28;20044;-76
2022/08/28 09:34:17;;;;;;;7.03;2.00;;;22.20;70.00;;;;;;5055560;28;20119;-73
2022/08/28 09:36:43;;;;;;;7.47;2.10;;;22.30;68.00;;;;;;5057215;28;20059;-75
2022/08/28 09:39:25;;;;;;;8.57;1.85;;;22.40;68.90;;;;;;5057264;28;20049;-74
2022/08/28 09:45:12;;;;;;;6.53;2.20;;;22.50;67.70;;;;;;5055238;28;20048;-72
2022/08/28 09:47:49;;;;;;;7.85;2.20;;;22.70;66.40;;;;;;5055570;28;20529;-74
2022/08/28 09:50:24;;;;;;;8.75;2.20;;;22.60;67.30;;;;;;5054659;28;20040;-74
2022/08/28 09:52:51;;;;;;;10.07;2.00;;;22.40;68.20;;;;;;5055034;28;20043;-74
2022/08/28 09:55:36;;;;;;;7.10;1.90;;;22.20;69.60;;;;;;5039155;28;20041;-75
2022/08/28 09:58:03;;;;;;;9.48;2.25;;;22.30;70.30;;;;;;5034667;28;20080;-71
2022/08/28 10:00:35;;;;;;;8.20;2.13;;;22.10;70.80;;;;;;5069505;28;20075;-73
2022/08/28 10:03:27;;;;;;;7.65;2.13;;;21.90;71.80;;;;;;5055340;28;20045;-73
2022/08/28 10:06:12;;;;;;;10.38;2.22;;;22.00;72.80;;;;;;5036062;28;20032;-73
2022/08/28 10:09:04;;;;;;;6.35;2.05;;;22.30;72.10;;;;;;5055515;28;20044;-76
2022/08/28 10:11:52;;;;;;;7.68;2.20;;;22.60;71.50;;;;;;5043830;28;20178;-73
2022/08/28 10:15:01;;;;;;;7.53;2.30;;;22.90;72.00;;;;;;5050583;28;20072;-74
2022/08/28 10:17:48;;;;;;;6.28;2.00;;;22.70;63.60;;;;;;5012815;28;20477;-74
2022/08/28 10:20:42;;;;;;;7.13;2.25;;;22.30;65.70;;;;;;5028632;28;20044;-74
2022/08/28 10:23:15;;;;;;;15.05;3.00;;;21.90;66.30;;;;;;5050661;28;20550;-75
2022/08/28 10:26:11;;;;;;;11.95;6.22;;;22.20;67.90;;;;;;5035017;28;20044;-76
2022/08/28 10:28:51;;;;;;;7.32;2.80;;;22.60;66.90;;;;;;5054438;28;20080;-72
2022/08/28 10:31:39;;;;;;;8.05;2.40;;;22.80;66.80;;;;;;5055945;28;20114;-79
2022/08/28 10:34:24;;;;;;;9.52;4.10;;;23.00;65.60;;;;;;5040082;28;20095;-72
2022/08/28 10:37:08;;;;;;;7.63;2.20;;;23.20;66.30;;;;;;5055049;28;20549;-74
2022/08/28 10:39:37;;;;;;;7.80;2.20;;;22.90;65.30;;;;;;5057300;28;20040;-72
2022/08/28 10:42:05;;;;;;;9.20;2.50;;;22.50;66.20;;;;;;5069622;28;20044;-74
2022/08/28 10:44:43;;;;;;;8.38;3.10;;;22.20;66.90;;;;;;5077009;28;20041;-72
2022/08/28 10:47:11;;;;;;;8.10;2.60;;;22.30;67.30;;;;;;5060766;28;20560;-78
2022/08/28 10:49:40;;;;;;;7.10;2.25;;;22.60;67.20;;;;;;5065782;28;20352;-71
2022/08/28 10:52:18;;;;;;;8.30;2.90;;;22.70;67.00;;;;;;5068504;28;20108;-73
2022/08/28 10:54:55;;;;;;;6.82;2.20;;;22.90;67.00;;;;;;5072883;28;20366;-74
2022/08/28 10:57:38;;;;;;;8.43;3.38;;;23.00;66.60;;;;;;5071229;28;20044;-73
2022/08/28 11:00:11;;;;;;;8.73;2.20;;;23.30;66.20;;;;;;5070770;28;20067;-74
2022/08/28 11:02:40;;;;;;;7.85;2.75;;;23.10;59.30;;;;;;5073042;28;20040;-74
2022/08/28 11:05:07;;;;;;;8.95;2.80;;;22.80;60.20;;;;;;5073928;28;20126;-72
2022/08/28 11:08:05;;;;;;;7.85;2.63;;;22.30;61.70;;;;;;5065981;28;20051;-75
2022/08/28 11:10:31;;;;;;;6.78;2.30;;;22.40;63.70;;;;;;5058619;28;20060;-71
2022/08/28 11:12:58;;;;;;;7.90;2.40;;;22.70;63.40;;;;;;5057194;28;20049;-73
2022/08/28 11:15:27;;;;;;;8.60;2.30;;;23.00;62.40;;;;;;5059769;28;20048;-73
2022/08/28 11:18:16;;;;;;;7.07;2.45;;;22.90;60.80;;;;;;5081949;28;20045;-74
2022/08/28 11:20:55;;;;;;;9.60;2.40;;;22.50;61.60;;;;;;5025431;28;20048;-71
2022/08/28 11:23:36;;;;;;;6.85;2.38;;;22.20;62.80;;;;;;5062670;28;20078;-71
2022/08/28 11:26:07;;;;;;;7.22;2.20;;;21.90;64.50;;;;;;5070471;28;20048;-72
2022/08/28 11:28:41;;;;;;;6.45;2.25;;;21.70;64.70;;;;;;5066015;28;20056;-72
2022/08/28 11:31:06;;;;;;;6.57;2.10;;;21.60;66.00;;;;;;5087449;28;20048;-73
2022/08/28 11:33:51;;;;;;;8.02;2.28;;;21.90;65.10;;;;;;5083107;28;20043;-72
2022/08/28 11:36:28;;;;;;;7.00;2.15;;;22.10;62.20;;;;;;5077514;28;20079;-73
2022/08/28 11:38:54;;;;;;;7.95;2.10;;;22.00;62.40;;;;;;5082337;28;20051;-73
2022/08/28 11:41:23;;;;;;;7.15;2.00;;;22.00;63.40;;;;;;5081320;28;20115;-72
2022/08/28 11:44:11;;;;;;;7.20;2.20;;;22.10;64.20;;;;;;5079121;28;20044;-74
2022/08/28 11:46:40;;;;;;;8.88;2.15;;;22.60;64.80;;;;;;5069792;28;20378;-77
2022/08/28 11:49:27;;;;;;;6.50;2.20;;;23.00;64.50;;;;;;5045866;28;20138;-73
2022/08/28 11:52:21;;;;;;;7.60;2.22;;;22.80;60.80;;;;;;5075790;28;20107;-74
2022/08/28 11:55:10;;;;;;;6.32;2.10;;;22.40;60.30;;;;;;5078078;28;20359;-74
2022/08/28 11:57:48;;;;;;;4.90;1.80;;;22.00;60.90;;;;;;5074565;28;20052;-72
2022/08/28 12:00:45;;;;;;;6.88;2.03;;;22.00;61.80;;;;;;5059440;28;21005;-74
2022/08/28 12:03:25;;;;;;;6.65;2.10;;;22.30;61.60;;;;;;5077869;28;20513;-73
2022/08/28 12:06:00;;;;;;;6.43;2.20;;;22.40;59.20;;;;;;5058350;28;20058;-74
2022/08/28 12:08:44;;;;;;;7.45;2.38;;;22.60;58.90;;;;;;5078343;28;20060;-74
2022/08/28 12:11:39;;;;;;;6.15;2.05;;;22.90;59.50;;;;;;5059715;28;20048;-73
2022/08/28 12:14:10;;;;;;;8.88;2.20;;;23.00;57.50;;;;;;5059774;28;20187;-72
2022/08/28 12:16:58;;;;;;;6.28;2.10;;;22.80;58.10;;;;;;5058859;28;20124;-72
2022/08/28 12:19:46;;;;;;;8.05;2.28;;;22.60;58.40;;;;;;5079353;28;20392;-73
2022/08/28 12:22:16;;;;;;;6.47;2.10;;;22.10;59.50;;;;;;5060162;28;20044;-74
2022/08/28 12:25:05;;;;;;;6.90;2.10;;;22.10;60.90;;;;;;5059108;28;20345;-75
2022/08/28 12:27:35;;;;;;;5.47;1.90;;;22.30;61.70;;;;;;5044746;28;20052;-73
2022/08/28 12:30:01;;;;;;;5.95;2.05;;;22.40;60.00;;;;;;5062442;28;20052;-74
2022/08/28 12:32:36;;;;;;;6.32;2.13;;;22.20;58.70;;;;;;5061217;28;20182;-72
2022/08/28 12:35:06;;;;;;;8.32;2.25;;;22.00;59.40;;;;;;5071783;28;20418;-78
2022/08/28 12:37:44;;;;;;;5.93;1.95;;;21.90;59.20;;;;;;5075289;28;20055;-74
2022/08/28 12:40:18;;;;;;;6.05;1.83;;;21.90;59.30;;;;;;5058684;28;20043;-76
2022/08/28 12:43:05;;;;;;;7.68;2.22;;;21.70;60.30;;;;;;5075844;28;20040;-75
2022/08/28 12:45:38;;;;;;;7.45;1.90;;;21.40;60.90;;;;;;5040738;28;20041;-72
2022/08/28 12:48:16;;;;;;;5.63;1.95;;;21.40;61.70;;;;;;5041608;28;20106;-75
2022/08/28 12:50:41;;;;;;;7.30;2.30;;;21.70;61.70;;;;;;5038972;28;20058;-73
2022/08/28 12:53:17;;;;;;;7.57;2.03;;;22.00;61.50;;;;;;5054785;28;20044;-74
2022/08/28 12:55:44;;;;;;;6.28;1.98;;;22.20;60.90;;;;;;5044592;28;20059;-74
2022/08/28 12:58:27;;;;;;;5.68;1.90;;;22.60;60.50;;;;;;5055455;28;20056;-79
2022/08/28 13:00:57;;;;;;;7.45;2.17;;;22.90;58.00;;;;;;5059672;28;20467;-73
2022/08/28 13:03:24;;;;;;;6.85;2.28;;;22.60;58.80;;;;;;5068856;28;20040;-72
2022/08/28 13:06:03;;;;;;;6.30;2.05;;;22.20;57.30;;;;;;5047896;28;20040;-77
2022/08/28 13:08:30;;;;;;;6.95;2.20;;;21.90;56.80;;;;;;5070824;28;20039;-72
2022/08/28 13:10:57;;;;;;;5.07;1.90;;;21.90;57.70;;;;;;5049405;28;20059;-74